.
Local / Fort Wayne - NE Ind.

U N D E R   C O N S T R U C T I O N

Local Weather
Fort Wayne – NE Indiana

Northern Indiana (IWX) Radar

Latest IWX NEXRAD
Base Reflectivity



Latest IWX NEXRAD
Base Velocity

Indiana-Ohio Visible Satellite

For infrared and water vapor imagery, see Great Lakes - Midwest.

Current Conditions

Recent report from the Fort Wayne International Airport

Jan 25, 2021 - 08:54 PM EST / 2021.01.26 0154 UTC


The skies are overcast and there is light freezing drizzle; mist. The temperature is 30.9 F (-0.6 C) and the dew point is 27.0 F (-2.8 C), giving a relative humidity of 85%. The barometric pressure is 29.84 in. Hg (1010 hPa). The wind is from the ENE (060 degrees) at 22 MPH (19 KT) gusting to 29 MPH (25 KT) creating a wind chill temperature of 17 F (-8 C), and the visibility is 3 mile(s).

KFWA 260154Z 06019G25KT 3SM -FZDZ BR OVC008 M01/M03 A2984 RMK AO2 PK WND 06026/0059 CIG 007V011 SLP112 P0000 I1002 T10061028

Local Weather — Contents

Local Weather — Links

CoCoRaHS
IN-AL-39
A2 Web Hosting
Creative Commons License
GoDaddy
search engine by freefind advanced

loaded 2021-01-25 21:55:27 • last modified 2017-02-11 13:27:36
Privacy PolicyDisclaimer
• wx.awcolley.com is powered by PmWiki v.2002016 •
• all content (unless otherwise noted) © 2021 A W Colley